createdAt,value
2023-02-24T00:02:15.779Z,79.48
2023-02-24T00:04:44.670Z,79.47
2023-02-24T00:07:13.746Z,79.69
2023-02-24T00:09:45.250Z,79.25
2023-02-24T00:12:15.963Z,78.42
2023-02-24T00:14:46.620Z,79.46
2023-02-24T00:17:15.579Z,78.67
2023-02-24T00:19:44.788Z,78.89
2023-02-24T00:22:13.548Z,78.42
2023-02-24T00:24:42.879Z,78.74
2023-02-24T00:27:14.306Z,78.55
2023-02-24T00:29:46.466Z,77.77
2023-02-24T00:32:15.663Z,77.73
2023-02-24T00:34:44.605Z,78.09
2023-02-24T00:37:16.192Z,78.07
2023-02-24T00:39:46.078Z,78.65
2023-02-24T00:42:15.607Z,78.29
2023-02-24T00:44:48.513Z,77.95
2023-02-24T00:47:18.406Z,78.66
2023-02-24T00:49:47.608Z,78.50
2023-02-24T00:52:19.139Z,76.98
2023-02-24T00:54:50.153Z,78.24
2023-02-24T00:57:21.889Z,77.89
2023-02-24T00:59:52.961Z,77.93
2023-02-24T01:02:22.119Z,77.93
2023-02-24T01:04:51.789Z,77.64
2023-02-24T01:07:23.270Z,77.99
2023-02-24T01:09:52.176Z,78.66
2023-02-24T01:12:39.317Z,78.59
2023-02-24T01:15:10.750Z,77.48
2023-02-24T01:17:41.469Z,78.56
2023-02-24T01:20:19.853Z,79.08
2023-02-24T01:22:53.898Z,77.47
2023-02-24T01:25:23.215Z,77.92
2023-02-24T01:27:53.513Z,78.05
2023-02-24T01:30:22.215Z,78.46
2023-02-24T01:32:52.254Z,79.14
2023-02-24T01:35:21.335Z,77.68
2023-02-24T01:37:50.049Z,78.40
2023-02-24T01:40:19.543Z,77.80
2023-02-24T01:42:48.527Z,79.08
2023-02-24T01:45:22.406Z,79.08
2023-02-24T01:47:52.812Z,79.21
2023-02-24T01:50:24.043Z,79.20
2023-02-24T01:52:58.974Z,78.41
2023-02-24T01:55:44.498Z,78.22
2023-02-24T01:58:27.521Z,79.03
2023-02-24T02:00:58.418Z,78.24
2023-02-24T02:03:37.546Z,77.66
2023-02-24T02:06:09.905Z,78.14
2023-02-24T02:08:42.004Z,78.20
2023-02-24T02:11:26.988Z,78.45
2023-02-24T02:13:55.947Z,78.64
2023-02-24T02:16:33.952Z,78.40
2023-02-24T02:19:17.625Z,78.10
2023-02-24T02:22:24.209Z,78.10
2023-02-24T02:25:06.163Z,78.20
2023-02-24T02:27:50.032Z,78.31
2023-02-24T02:30:24.538Z,78.90
2023-02-24T02:33:05.488Z,78.82
2023-02-24T02:35:54.983Z,78.02
2023-02-24T02:38:40.663Z,78.15
2023-02-24T02:41:25.369Z,78.56
2023-02-24T02:44:20.168Z,77.69
2023-02-24T02:47:03.581Z,77.96
2023-02-24T02:49:47.326Z,78.09
2023-02-24T02:52:37.229Z,78.76
2023-02-24T02:55:32.788Z,77.61
2023-02-24T02:58:04.877Z,78.50
2023-02-24T03:00:39.118Z,77.77
2023-02-24T03:03:18.487Z,78.42
2023-02-24T03:06:02.730Z,77.98
2023-02-24T03:08:37.945Z,78.21
2023-02-24T03:11:12.083Z,78.35
2023-02-24T03:13:46.567Z,78.07
2023-02-24T03:16:18.353Z,77.69
2023-02-24T03:18:59.317Z,77.78
2023-02-24T03:21:34.358Z,76.75
2023-02-24T03:24:06.584Z,77.73
2023-02-24T03:26:52.877Z,76.06
2023-02-24T03:29:24.858Z,76.86
2023-02-24T03:32:14.214Z,75.81
2023-02-24T03:35:11.918Z,74.60
2023-02-24T03:37:41.961Z,73.15
2023-02-24T03:40:17.378Z,73.15
2023-02-24T03:42:51.500Z,71.76
2023-02-24T03:45:23.985Z,71.07
2023-02-24T03:47:54.839Z,69.54
2023-02-24T03:50:24.317Z,69.21
2023-02-24T03:53:17.119Z,67.14
2023-02-24T03:56:11.696Z,67.60
2023-02-24T03:58:51.335Z,66.67
2023-02-24T04:01:43.137Z,66.44
2023-02-24T04:04:54.574Z,65.91
2023-02-24T04:08:07.881Z,67.35
2023-02-24T04:10:53.244Z,68.35
2023-02-24T04:13:48.540Z,68.78
2023-02-24T04:16:30.078Z,68.67
2023-02-24T04:19:06.719Z,70.09
2023-02-24T04:21:39.843Z,70.74
2023-02-24T04:24:16.147Z,70.85
2023-02-24T04:26:48.880Z,70.92
2023-02-24T04:29:23.846Z,71.15
2023-02-24T04:32:01.825Z,71.17
2023-02-24T04:34:33.295Z,71.07
2023-02-24T04:37:06.091Z,71.42
2023-02-24T04:39:39.101Z,71.23
2023-02-24T04:42:20.776Z,71.22
2023-02-24T04:44:49.382Z,71.56
2023-02-24T04:47:18.370Z,71.44
2023-02-24T04:49:47.192Z,71.23
2023-02-24T04:52:16.950Z,71.35
2023-02-24T04:54:45.469Z,71.20
2023-02-24T04:57:15.178Z,71.59
2023-02-24T04:59:43.911Z,71.25
2023-02-24T05:02:13.355Z,71.58
2023-02-24T05:04:42.115Z,71.97
2023-02-24T05:07:13.392Z,72.00
2023-02-24T05:09:42.536Z,71.75
2023-02-24T05:12:14.254Z,70.66
2023-02-24T05:14:43.098Z,71.22
2023-02-24T05:17:14.534Z,71.31
2023-02-24T05:20:12.739Z,70.67
2023-02-24T05:22:41.798Z,71.40
2023-02-24T05:25:10.807Z,70.36
2023-02-24T05:27:39.716Z,70.12
2023-02-24T05:30:10.708Z,70.18
2023-02-24T05:32:39.791Z,69.60
2023-02-24T05:35:09.455Z,69.59
2023-02-24T05:37:42.775Z,69.71
2023-02-24T05:40:14.213Z,68.42
2023-02-24T05:42:42.972Z,68.66
2023-02-24T05:45:12.350Z,68.43
2023-02-24T05:47:41.152Z,68.85
2023-02-24T05:50:10.393Z,67.45
2023-02-24T05:52:39.450Z,66.67
2023-02-24T05:55:14.711Z,66.01
2023-02-24T05:57:44.472Z,66.07
2023-02-24T06:00:17.132Z,65.72
2023-02-24T06:02:50.177Z,66.24
2023-02-24T06:05:29.490Z,64.43
2023-02-24T06:08:12.491Z,65.63
2023-02-24T06:10:41.519Z,63.92
2023-02-24T06:13:11.151Z,64.84
2023-02-24T06:15:42.736Z,63.88
2023-02-24T06:18:12.355Z,63.06
2023-02-24T06:20:41.670Z,63.29
2023-02-24T06:23:10.449Z,62.73
2023-02-24T06:25:40.396Z,62.44
2023-02-24T06:28:10.575Z,62.74
2023-02-24T06:30:39.428Z,62.45
2023-02-24T06:33:08.188Z,62.71
2023-02-24T06:35:39.612Z,61.37
2023-02-24T06:38:08.663Z,61.61
2023-02-24T06:40:39.638Z,61.49
2023-02-24T06:43:12.446Z,61.66
2023-02-24T06:45:41.649Z,60.85
2023-02-24T06:48:10.335Z,61.06
2023-02-24T06:50:40.587Z,60.52
2023-02-24T06:53:17.695Z,60.65
2023-02-24T06:55:49.635Z,60.63
2023-02-24T06:58:21.012Z,59.66
2023-02-24T07:00:57.455Z,59.15
2023-02-24T07:03:40.298Z,59.70
2023-02-24T07:06:24.793Z,59.62
2023-02-24T07:08:54.232Z,61.55
2023-02-24T07:11:23.325Z,62.12
2023-02-24T07:13:55.251Z,61.13
2023-02-24T07:16:29.330Z,61.80
2023-02-24T07:19:01.720Z,62.52
2023-02-24T07:21:40.322Z,61.74
2023-02-24T07:24:12.915Z,62.16
2023-02-24T07:26:44.414Z,60.67
2023-02-24T07:29:13.463Z,60.37
2023-02-24T07:31:43.533Z,60.02
2023-02-24T07:34:15.765Z,59.54
2023-02-24T07:36:49.964Z,60.95
2023-02-24T07:39:20.172Z,60.51
2023-02-24T07:41:50.255Z,60.01
2023-02-24T07:44:20.513Z,60.79
2023-02-24T07:46:53.289Z,60.70
2023-02-24T07:49:26.656Z,61.02
2023-02-24T07:51:58.456Z,62.33
2023-02-24T07:54:30.792Z,62.66
2023-02-24T07:57:00.005Z,63.06
2023-02-24T07:59:31.453Z,62.33
2023-02-24T08:02:01.213Z,62.44
2023-02-24T08:04:33.653Z,63.45
2023-02-24T08:07:05.219Z,64.23
2023-02-24T08:09:47.261Z,64.27
2023-02-24T08:12:19.294Z,65.09
2023-02-24T08:14:52.983Z,64.83
2023-02-24T08:17:27.172Z,64.89
2023-02-24T08:20:22.189Z,64.24
2023-02-24T08:22:53.245Z,64.48
2023-02-24T08:25:24.369Z,64.00
2023-02-24T08:28:08.453Z,65.04
2023-02-24T08:30:47.252Z,65.23
2023-02-24T08:33:22.791Z,64.92
2023-02-24T08:36:01.941Z,65.71
2023-02-24T08:38:40.612Z,65.41
2023-02-24T08:41:18.690Z,65.24
2023-02-24T08:43:49.385Z,65.22
2023-02-24T08:46:22.091Z,64.13
2023-02-24T08:48:56.293Z,64.35
2023-02-24T08:51:44.288Z,64.30
2023-02-24T08:54:17.718Z,64.42
2023-02-24T08:56:56.616Z,64.00
2023-02-24T08:59:38.694Z,63.59
2023-02-24T09:02:24.179Z,62.78
2023-02-24T09:04:55.002Z,63.78
2023-02-24T09:07:27.229Z,64.27
2023-02-24T09:09:57.602Z,64.94
2023-02-24T09:12:29.829Z,64.63
2023-02-24T09:15:01.699Z,64.80
2023-02-24T09:17:41.621Z,64.54
2023-02-24T09:20:24.902Z,65.11
2023-02-24T09:23:04.380Z,65.68
2023-02-24T09:25:41.479Z,64.96
2023-02-24T09:28:18.050Z,65.85
2023-02-24T09:30:59.274Z,65.63
2023-02-24T09:33:42.904Z,65.25
2023-02-24T09:36:42.790Z,64.96
2023-02-24T09:39:15.303Z,65.70
2023-02-24T09:41:56.404Z,65.94
2023-02-24T09:44:34.873Z,66.51
2023-02-24T09:47:31.902Z,66.79
2023-02-24T09:51:01.984Z,67.65
2023-02-24T09:53:41.688Z,67.19
2023-02-24T09:56:25.222Z,66.39
2023-02-24T09:59:29.364Z,65.03
2023-02-24T10:02:18.695Z,64.86
2023-02-24T10:05:16.766Z,65.15
2023-02-24T10:07:47.045Z,64.54
2023-02-24T10:10:28.663Z,64.39
2023-02-24T10:13:14.595Z,64.48
2023-02-24T10:15:57.577Z,64.66
2023-02-24T10:19:01.802Z,64.33
2023-02-24T10:21:50.778Z,65.09
2023-02-24T10:24:35.204Z,65.02
2023-02-24T10:27:28.291Z,64.08
2023-02-24T10:30:28.520Z,63.77
2023-02-24T10:33:06.033Z,64.16
2023-02-24T10:35:37.524Z,64.39
2023-02-24T10:38:06.210Z,64.21
2023-02-24T10:40:47.643Z,63.94
2023-02-24T10:43:20.608Z,64.73
2023-02-24T10:45:49.863Z,64.22
2023-02-24T10:48:40.716Z,64.40
2023-02-24T10:51:31.164Z,64.35
2023-02-24T10:54:23.664Z,64.98
2023-02-24T10:57:01.491Z,64.04
2023-02-24T10:59:59.084Z,64.59
2023-02-24T11:02:35.989Z,64.36
2023-02-24T11:05:39.485Z,64.44
2023-02-24T11:08:51.646Z,65.16
2023-02-24T11:11:52.344Z,65.18
2023-02-24T11:14:40.278Z,64.89
2023-02-24T11:17:21.470Z,65.75
2023-02-24T11:20:11.582Z,65.74
2023-02-24T11:22:46.516Z,65.99
2023-02-24T11:25:28.142Z,65.94
2023-02-24T11:27:57.919Z,65.15
2023-02-24T11:30:46.030Z,66.55
2023-02-24T11:33:29.680Z,65.67
2023-02-24T11:36:15.838Z,66.25
2023-02-24T11:38:54.129Z,66.26
2023-02-24T11:41:39.551Z,66.28
2023-02-24T11:44:15.108Z,66.49
2023-02-24T11:46:52.874Z,66.80
2023-02-24T11:49:44.680Z,67.18
2023-02-24T11:52:40.359Z,66.04
2023-02-24T11:55:49.059Z,66.70
2023-02-24T11:58:49.203Z,66.41
2023-02-24T12:01:21.901Z,68.19
2023-02-24T12:03:53.461Z,66.52
2023-02-24T12:06:36.240Z,68.21
2023-02-24T12:09:15.099Z,67.33
2023-02-24T12:11:56.514Z,66.57
2023-02-24T12:14:48.519Z,67.70
2023-02-24T12:17:36.168Z,67.89
2023-02-24T12:20:08.038Z,67.52
2023-02-24T12:22:51.502Z,68.04
2023-02-24T12:25:26.221Z,67.79
2023-02-24T12:28:38.843Z,68.04
2023-02-24T12:31:42.479Z,67.67
2023-02-24T12:34:15.237Z,67.59
2023-02-24T12:37:08.956Z,68.49
2023-02-24T12:39:47.342Z,67.65
2023-02-24T12:42:29.995Z,68.30
2023-02-24T12:45:17.680Z,69.30
2023-02-24T12:47:57.204Z,68.98
2023-02-24T12:50:38.483Z,68.18
2023-02-24T12:53:22.557Z,69.51
2023-02-24T12:56:10.034Z,68.85
2023-02-24T12:58:42.401Z,68.80
2023-02-24T13:01:35.746Z,68.59
2023-02-24T13:04:46.384Z,68.56
2023-02-24T13:07:37.674Z,68.88
2023-02-24T13:10:12.807Z,69.02
2023-02-24T13:12:50.177Z,69.35
2023-02-24T13:15:32.378Z,68.99
2023-02-24T13:18:01.917Z,69.00
2023-02-24T13:20:38.489Z,69.05
2023-02-24T13:23:22.401Z,69.32
2023-02-24T13:25:56.584Z,69.42
2023-02-24T13:28:33.804Z,69.61
2023-02-24T13:31:11.769Z,69.41
2023-02-24T13:33:43.514Z,70.04
2023-02-24T13:36:17.760Z,70.34
2023-02-24T13:39:22.782Z,69.67
2023-02-24T13:42:02.192Z,69.59
2023-02-24T13:44:32.603Z,70.05
2023-02-24T13:47:27.496Z,69.81
2023-02-24T13:49:55.994Z,70.02
2023-02-24T13:52:33.495Z,69.75
2023-02-24T13:55:17.972Z,70.54
2023-02-24T13:58:27.789Z,70.31
2023-02-24T14:01:02.797Z,70.77
2023-02-24T14:03:31.727Z,70.55
2023-02-24T14:06:02.244Z,71.00
2023-02-24T14:08:42.953Z,71.00
2023-02-24T14:11:16.469Z,70.71
2023-02-24T14:13:51.459Z,71.18
2023-02-24T14:16:49.938Z,70.90
2023-02-24T14:19:19.015Z,71.42
2023-02-24T14:21:58.755Z,71.00
2023-02-24T14:24:30.066Z,71.46
2023-02-24T14:27:00.491Z,70.84
2023-02-24T14:29:43.212Z,71.36
2023-02-24T14:32:22.866Z,71.93
2023-02-24T14:34:53.872Z,71.64
2023-02-24T14:37:31.977Z,72.19
2023-02-24T14:40:01.468Z,72.10
2023-02-24T14:42:33.353Z,72.41
2023-02-24T14:45:02.835Z,72.78
2023-02-24T14:47:34.202Z,72.22
2023-02-24T14:50:05.693Z,72.64
2023-02-24T14:52:46.732Z,73.83
2023-02-24T14:55:22.092Z,72.82
2023-02-24T14:57:54.332Z,73.99
2023-02-24T15:00:47.314Z,73.32
2023-02-24T15:03:16.872Z,74.65
2023-02-24T15:05:52.094Z,74.59
2023-02-24T15:08:45.172Z,75.48
2023-02-24T15:11:17.211Z,74.97
2023-02-24T15:13:58.064Z,74.32
2023-02-24T15:16:37.709Z,74.28
2023-02-24T15:19:26.316Z,73.18
2023-02-24T15:21:55.693Z,73.09
2023-02-24T15:24:35.692Z,72.82
2023-02-24T15:27:16.429Z,73.77
2023-02-24T15:29:57.138Z,72.75
2023-02-24T15:32:28.265Z,72.94
2023-02-24T15:34:57.671Z,72.43
2023-02-24T15:37:30.488Z,72.52
2023-02-24T15:40:22.512Z,72.50
2023-02-24T15:43:09.518Z,72.10
2023-02-24T15:45:40.327Z,71.99
2023-02-24T15:48:28.070Z,72.03
2023-02-24T15:51:04.077Z,71.80
2023-02-24T15:53:33.435Z,72.03
2023-02-24T15:56:02.198Z,71.58
2023-02-24T15:58:31.439Z,71.68
2023-02-24T16:01:00.476Z,72.09
2023-02-24T16:03:29.173Z,71.80
2023-02-24T16:05:57.978Z,71.66
2023-02-24T16:08:26.747Z,71.32
2023-02-24T16:10:55.856Z,71.28
2023-02-24T16:13:26.538Z,71.76
2023-02-24T16:15:55.511Z,71.96
2023-02-24T16:18:26.557Z,72.02
2023-02-24T16:20:55.832Z,72.02
2023-02-24T16:23:26.628Z,71.62
2023-02-24T16:25:59.008Z,71.98
2023-02-24T16:28:28.477Z,71.90
2023-02-24T16:30:57.394Z,71.64
2023-02-24T16:33:26.646Z,71.69
2023-02-24T16:35:55.802Z,72.05
2023-02-24T16:38:27.967Z,72.29
2023-02-24T16:40:57.280Z,71.80
2023-02-24T16:43:26.026Z,71.39
2023-02-24T16:46:02.626Z,71.41
2023-02-24T16:48:35.313Z,71.77
2023-02-24T16:51:06.699Z,71.53
2023-02-24T16:53:35.837Z,71.77
2023-02-24T16:56:05.519Z,72.23
2023-02-24T16:58:34.526Z,72.26
2023-02-24T17:01:05.825Z,71.71
2023-02-24T17:03:49.559Z,71.97
2023-02-24T17:06:19.787Z,72.27
2023-02-24T17:08:50.707Z,71.45
2023-02-24T17:11:21.722Z,71.59
2023-02-24T17:13:54.530Z,71.73
2023-02-24T17:16:25.710Z,72.19
2023-02-24T17:18:54.698Z,72.40
2023-02-24T17:21:23.741Z,72.40
2023-02-24T17:23:52.512Z,71.65
2023-02-24T17:26:21.882Z,71.84
2023-02-24T17:28:50.953Z,72.34
2023-02-24T17:31:20.272Z,71.93
2023-02-24T17:33:49.172Z,72.40
2023-02-24T17:36:18.246Z,72.41
2023-02-24T17:38:49.310Z,71.82
2023-02-24T17:41:17.918Z,72.24
2023-02-24T17:43:46.700Z,72.04
2023-02-24T17:46:15.339Z,71.78
2023-02-24T17:48:44.929Z,71.40
2023-02-24T17:51:15.492Z,72.41
2023-02-24T17:53:44.506Z,72.07
2023-02-24T17:56:13.845Z,71.83
2023-02-24T17:58:42.987Z,71.52
2023-02-24T18:01:12.626Z,72.55
2023-02-24T18:03:41.490Z,71.56
2023-02-24T18:06:14.169Z,72.36
2023-02-24T18:08:42.784Z,71.66
2023-02-24T18:11:16.899Z,72.82
2023-02-24T18:13:45.608Z,71.77
2023-02-24T18:16:16.072Z,71.84
2023-02-24T18:18:44.857Z,72.17
2023-02-24T18:21:13.769Z,71.71
2023-02-24T18:23:42.605Z,72.48
2023-02-24T18:26:13.567Z,72.74
2023-02-24T18:28:43.412Z,73.02
2023-02-24T18:31:24.056Z,72.97
2023-02-24T18:33:53.949Z,72.67
2023-02-24T18:36:23.175Z,72.29
2023-02-24T18:38:52.175Z,73.01
2023-02-24T18:41:24.270Z,72.77
2023-02-24T18:43:55.644Z,72.27
2023-02-24T18:46:26.198Z,72.80
2023-02-24T18:48:56.783Z,73.06
2023-02-24T18:51:29.657Z,72.31
2023-02-24T18:54:01.154Z,73.31
2023-02-24T18:56:32.260Z,72.54
2023-02-24T18:59:02.510Z,73.21
2023-02-24T19:01:36.883Z,73.31
2023-02-24T19:04:06.286Z,73.48
2023-02-24T19:06:36.141Z,73.00
2023-02-24T19:09:11.596Z,72.35
2023-02-24T19:11:42.401Z,73.23
2023-02-24T19:14:14.661Z,72.17
2023-02-24T19:16:43.678Z,72.66
2023-02-24T19:19:15.194Z,73.29
2023-02-24T19:21:45.990Z,72.31
2023-02-24T19:24:14.596Z,73.52
2023-02-24T19:26:46.483Z,73.41
2023-02-24T19:29:15.431Z,73.24
2023-02-24T19:31:46.185Z,73.25
2023-02-24T19:34:15.958Z,72.61
2023-02-24T19:36:44.727Z,73.63
2023-02-24T19:39:15.549Z,73.36
2023-02-24T19:41:44.473Z,73.14
2023-02-24T19:44:13.527Z,72.70
2023-02-24T19:46:42.047Z,73.66
2023-02-24T19:49:10.774Z,73.69
2023-02-24T19:51:39.633Z,73.95
2023-02-24T19:54:08.257Z,73.69
2023-02-24T19:56:37.809Z,72.81
2023-02-24T19:59:08.496Z,73.87
2023-02-24T20:01:37.546Z,73.78
2023-02-24T20:04:09.471Z,72.93
2023-02-24T20:06:44.294Z,74.01
2023-02-24T20:09:16.218Z,73.83
2023-02-24T20:11:46.680Z,72.73
2023-02-24T20:14:17.094Z,73.01
2023-02-24T20:16:46.514Z,73.23
2023-02-24T20:19:16.482Z,73.83
2023-02-24T20:21:45.253Z,72.72
2023-02-24T20:24:16.283Z,73.32
2023-02-24T20:26:47.702Z,73.01
2023-02-24T20:29:18.148Z,72.89
2023-02-24T20:31:47.028Z,73.07
2023-02-24T20:34:17.479Z,73.28
2023-02-24T20:36:46.180Z,73.92
2023-02-24T20:39:15.433Z,73.71
2023-02-24T20:41:44.455Z,73.57
2023-02-24T20:44:13.223Z,73.39
2023-02-24T20:46:44.741Z,73.41
2023-02-24T20:49:17.693Z,73.83
2023-02-24T20:51:46.965Z,73.69
2023-02-24T20:54:15.876Z,74.29
2023-02-24T20:56:46.156Z,73.31
2023-02-24T20:59:23.198Z,73.97
2023-02-24T21:01:52.517Z,74.28
2023-02-24T21:04:22.099Z,73.17
2023-02-24T21:06:52.642Z,74.07
2023-02-24T21:09:21.472Z,74.48
2023-02-24T21:11:50.619Z,74.26
2023-02-24T21:14:19.584Z,74.37
2023-02-24T21:16:51.088Z,73.88
2023-02-24T21:19:20.923Z,73.46
2023-02-24T21:21:49.592Z,74.17
2023-02-24T21:24:18.910Z,73.87
2023-02-24T21:26:48.259Z,74.57
2023-02-24T21:29:17.345Z,74.31
2023-02-24T21:31:46.350Z,74.42
2023-02-24T21:34:17.610Z,74.06
2023-02-24T21:36:46.491Z,74.64
2023-02-24T21:39:18.994Z,74.11
2023-02-24T21:41:48.362Z,74.80
2023-02-24T21:44:17.311Z,74.60
2023-02-24T21:46:46.353Z,74.15
2023-02-24T21:49:15.479Z,74.67
2023-02-24T21:51:44.490Z,73.84
2023-02-24T21:54:15.004Z,73.99
2023-02-24T21:56:46.092Z,74.48
2023-02-24T21:59:14.510Z,73.66
2023-02-24T22:01:44.870Z,74.58
2023-02-24T22:04:16.230Z,74.17
2023-02-24T22:06:47.514Z,74.52
2023-02-24T22:09:20.438Z,74.56
2023-02-24T22:11:50.669Z,74.26
2023-02-24T22:14:22.533Z,74.63
2023-02-24T22:16:51.195Z,74.47
2023-02-24T22:19:20.932Z,74.63
2023-02-24T22:21:49.689Z,74.68
2023-02-24T22:24:19.351Z,74.01
2023-02-24T22:26:48.601Z,74.49
2023-02-24T22:29:17.304Z,74.48
2023-02-24T22:31:49.720Z,74.52
2023-02-24T22:34:18.892Z,74.03
2023-02-24T22:36:47.983Z,74.68
2023-02-24T22:39:17.597Z,74.08
2023-02-24T22:41:47.570Z,74.17
2023-02-24T22:44:19.915Z,74.69
2023-02-24T22:46:49.215Z,74.52
2023-02-24T22:49:19.577Z,74.61
2023-02-24T22:51:48.339Z,74.14
2023-02-24T22:54:17.461Z,74.15
2023-02-24T22:56:46.972Z,74.49
2023-02-24T22:59:16.578Z,74.65
2023-02-24T23:01:45.457Z,74.63
2023-02-24T23:04:16.938Z,74.39
2023-02-24T23:06:46.175Z,74.57
2023-02-24T23:09:20.309Z,74.37
2023-02-24T23:11:49.271Z,74.68
2023-02-24T23:14:18.531Z,74.23
2023-02-24T23:16:54.153Z,74.47
2023-02-24T23:19:24.209Z,74.10
2023-02-24T23:21:55.069Z,74.78
2023-02-24T23:24:24.792Z,74.29
2023-02-24T23:26:57.874Z,74.67
2023-02-24T23:29:27.598Z,74.54
2023-02-24T23:31:56.406Z,74.52
2023-02-24T23:34:25.416Z,74.28
2023-02-24T23:36:54.137Z,74.38
2023-02-24T23:39:24.438Z,74.32
2023-02-24T23:41:57.085Z,74.70
2023-02-24T23:44:26.654Z,74.42
2023-02-24T23:46:55.654Z,74.62
2023-02-24T23:49:24.714Z,74.82
2023-02-24T23:51:53.584Z,74.36
2023-02-24T23:54:22.393Z,74.29
2023-02-24T23:56:50.997Z,74.40
2023-02-24T23:59:19.812Z,74.39
